createdAt,value
2023-07-08T00:00:56.380Z,21.95
2023-07-08T00:03:24.237Z,21.90
2023-07-08T00:05:57.723Z,21.86
2023-07-08T00:08:26.034Z,21.74
2023-07-08T00:10:57.008Z,21.68
2023-07-08T00:13:24.832Z,21.52
2023-07-08T00:15:52.765Z,21.45
2023-07-08T00:18:20.618Z,21.40
2023-07-08T00:20:51.131Z,21.29
2023-07-08T00:23:24.852Z,21.26
2023-07-08T00:25:52.852Z,21.20
2023-07-08T00:28:22.633Z,21.13
2023-07-08T00:30:50.617Z,21.03
2023-07-08T00:33:18.557Z,20.99
2023-07-08T00:35:47.287Z,21.00
2023-07-08T00:38:21.386Z,20.97
2023-07-08T00:40:52.720Z,20.93
2023-07-08T00:43:35.054Z,20.90
2023-07-08T00:46:22.687Z,20.87
2023-07-08T00:48:54.116Z,20.81
2023-07-08T00:51:24.768Z,20.79
2023-07-08T00:53:52.945Z,20.72
2023-07-08T00:56:33.743Z,20.68
2023-07-08T00:59:09.661Z,20.62
2023-07-08T01:01:43.809Z,20.62
2023-07-08T01:04:15.895Z,20.61
2023-07-08T01:06:58.142Z,20.51
2023-07-08T01:09:31.783Z,20.55
2023-07-08T01:12:08.987Z,20.46
2023-07-08T01:14:43.317Z,20.44
2023-07-08T01:17:15.121Z,20.43
2023-07-08T01:19:45.370Z,20.50
2023-07-08T01:22:14.888Z,20.47
2023-07-08T01:24:45.882Z,20.41
2023-07-08T01:27:17.734Z,20.34
2023-07-08T01:29:47.476Z,20.30
2023-07-08T01:32:19.046Z,20.35
2023-07-08T01:35:00.705Z,20.28
2023-07-08T01:37:38.936Z,20.17
2023-07-08T01:40:25.182Z,20.16
2023-07-08T01:42:54.000Z,20.24
2023-07-08T01:45:25.233Z,20.25
2023-07-08T01:47:57.539Z,20.24
2023-07-08T01:50:28.531Z,20.22
2023-07-08T01:53:02.497Z,20.20
2023-07-08T01:55:31.272Z,20.16
2023-07-08T01:57:59.454Z,20.13
2023-07-08T02:00:27.684Z,20.14
2023-07-08T02:02:55.642Z,20.14
2023-07-08T02:05:24.544Z,20.13
2023-07-08T02:07:52.532Z,20.16
2023-07-08T02:10:22.190Z,20.18
2023-07-08T02:12:50.000Z,20.16
2023-07-08T02:15:18.065Z,20.17
2023-07-08T02:17:45.913Z,20.12
2023-07-08T02:20:14.020Z,20.11
2023-07-08T02:22:41.940Z,20.15
2023-07-08T02:25:10.433Z,20.19
2023-07-08T02:27:40.250Z,20.14
2023-07-08T02:30:09.997Z,20.11
2023-07-08T02:32:39.942Z,20.07
2023-07-08T02:35:09.601Z,20.14
2023-07-08T02:37:37.505Z,20.18
2023-07-08T02:40:07.516Z,20.21
2023-07-08T02:42:35.445Z,20.15
2023-07-08T02:45:06.506Z,20.15
2023-07-08T02:47:34.579Z,20.17
2023-07-08T02:50:02.506Z,20.10
2023-07-08T02:52:30.419Z,20.09
2023-07-08T02:54:58.215Z,20.10
2023-07-08T02:57:26.035Z,20.15
2023-07-08T02:59:53.929Z,20.10
2023-07-08T03:02:24.268Z,20.09
2023-07-08T03:04:52.182Z,20.09
2023-07-08T03:07:20.062Z,20.09
2023-07-08T03:09:48.089Z,20.05
2023-07-08T03:12:15.893Z,20.05
2023-07-08T03:14:43.806Z,20.03
2023-07-08T03:17:12.796Z,20.05
2023-07-08T03:19:42.619Z,19.98
2023-07-08T03:22:10.673Z,19.94
2023-07-08T03:24:47.247Z,19.96
2023-07-08T03:27:19.046Z,19.92
2023-07-08T03:29:50.007Z,19.89
2023-07-08T03:32:18.391Z,19.94
2023-07-08T03:34:47.623Z,19.92
2023-07-08T03:37:15.830Z,19.98
2023-07-08T03:39:43.705Z,19.96
2023-07-08T03:42:11.603Z,19.98
2023-07-08T03:44:39.546Z,19.94
2023-07-08T03:47:09.227Z,19.98
2023-07-08T03:49:37.991Z,19.99
2023-07-08T03:52:18.038Z,19.97
2023-07-08T03:54:46.291Z,19.92
2023-07-08T03:57:14.227Z,19.95
2023-07-08T03:59:42.335Z,19.94
2023-07-08T04:02:12.236Z,19.96
2023-07-08T04:04:40.774Z,20.00
2023-07-08T04:07:09.952Z,19.99
2023-07-08T04:09:37.960Z,20.05
2023-07-08T04:12:07.008Z,20.03
2023-07-08T04:14:34.985Z,20.07
2023-07-08T04:17:02.997Z,20.06
2023-07-08T04:19:30.885Z,20.08
2023-07-08T04:21:58.788Z,20.14
2023-07-08T04:24:28.189Z,20.06
2023-07-08T04:26:56.326Z,20.07
2023-07-08T04:29:24.802Z,20.16
2023-07-08T04:31:52.638Z,20.19
2023-07-08T04:34:21.315Z,20.19
2023-07-08T04:36:49.246Z,20.24
2023-07-08T04:39:17.122Z,20.22
2023-07-08T04:41:46.803Z,20.37
2023-07-08T04:44:15.058Z,20.50
2023-07-08T04:46:52.268Z,20.51
2023-07-08T04:49:21.153Z,20.63
2023-07-08T04:51:48.962Z,20.73
2023-07-08T04:54:16.861Z,20.83
2023-07-08T04:56:49.577Z,20.97
2023-07-08T04:59:21.391Z,21.17
2023-07-08T05:01:50.406Z,21.34
2023-07-08T05:04:21.749Z,21.49
2023-07-08T05:06:51.208Z,21.57
2023-07-08T05:09:19.605Z,21.58
2023-07-08T05:11:48.830Z,21.73
2023-07-08T05:14:16.618Z,21.91
2023-07-08T05:16:44.497Z,21.88
2023-07-08T05:19:12.496Z,21.96
2023-07-08T05:21:40.552Z,22.01
2023-07-08T05:24:09.173Z,22.22
2023-07-08T05:26:37.259Z,22.36
2023-07-08T05:29:06.700Z,22.49
2023-07-08T05:34:06.341Z,22.70
2023-07-08T05:36:34.342Z,22.87
2023-07-08T05:39:02.475Z,23.06
2023-07-08T05:41:30.373Z,23.09
2023-07-08T05:43:58.168Z,23.43
2023-07-08T05:46:27.439Z,23.79
2023-07-08T05:48:57.781Z,24.06
2023-07-08T05:51:26.875Z,24.30
2023-07-08T05:53:54.658Z,24.37
2023-07-08T05:56:22.576Z,24.30
2023-07-08T05:58:50.347Z,24.32
2023-07-08T06:01:18.204Z,24.27
2023-07-08T06:03:47.431Z,24.56
2023-07-08T06:06:15.503Z,24.58
2023-07-08T06:08:43.932Z,24.65
2023-07-08T06:11:11.869Z,24.61
2023-07-08T06:13:39.723Z,24.61
2023-07-08T06:16:07.846Z,24.76
2023-07-08T06:18:35.968Z,25.16
2023-07-08T06:21:05.254Z,25.65
2023-07-08T06:23:33.072Z,25.94
2023-07-08T06:26:01.034Z,26.25
2023-07-08T06:28:28.888Z,26.30
2023-07-08T06:30:56.740Z,26.40
2023-07-08T06:33:24.703Z,26.37
2023-07-08T06:35:52.664Z,26.46
2023-07-08T06:38:21.909Z,26.79
2023-07-08T06:40:49.756Z,26.98
2023-07-08T06:43:17.578Z,27.21
2023-07-08T06:46:07.431Z,27.35
2023-07-08T06:48:35.465Z,27.39
2023-07-08T06:51:03.581Z,27.26
2023-07-08T06:53:32.844Z,27.32
2023-07-08T06:56:00.744Z,27.49
2023-07-08T06:58:28.984Z,27.34
2023-07-08T07:00:56.892Z,27.79
2023-07-08T07:03:25.068Z,27.51
2023-07-08T07:05:52.954Z,27.56
2023-07-08T07:08:21.048Z,27.89
2023-07-08T07:10:50.245Z,28.03
2023-07-08T07:13:18.057Z,28.01
2023-07-08T07:15:45.975Z,28.10
2023-07-08T07:18:13.899Z,28.21
2023-07-08T07:20:50.986Z,28.41
2023-07-08T07:23:18.962Z,28.20
2023-07-08T07:25:50.934Z,28.20
2023-07-08T07:28:20.607Z,28.01
2023-07-08T07:30:56.239Z,28.08
2023-07-08T07:33:24.465Z,28.26
2023-07-08T07:35:52.396Z,28.36
2023-07-08T07:38:20.343Z,28.55
2023-07-08T07:40:48.365Z,28.88
2023-07-08T07:43:16.246Z,29.43
2023-07-08T07:45:45.382Z,29.49
2023-07-08T07:48:13.310Z,29.81
2023-07-08T07:50:41.724Z,30.36
2023-07-08T07:53:09.580Z,30.23
2023-07-08T07:55:37.382Z,30.30
2023-07-08T07:58:06.060Z,30.52
2023-07-08T08:00:34.128Z,30.90
2023-07-08T08:03:03.690Z,31.20
2023-07-08T08:05:31.647Z,31.49
2023-07-08T08:07:59.580Z,31.29
2023-07-08T08:10:27.646Z,31.35
2023-07-08T08:12:55.540Z,31.58
2023-07-08T08:15:23.984Z,31.67
2023-07-08T08:17:53.386Z,32.22
2023-07-08T08:20:26.171Z,32.67
2023-07-08T08:22:54.184Z,33.26
2023-07-08T08:25:25.283Z,33.43
2023-07-08T08:27:53.559Z,33.76
2023-07-08T08:30:21.724Z,33.34
2023-07-08T08:32:49.764Z,33.42
2023-07-08T08:35:17.955Z,33.21
2023-07-08T08:37:48.233Z,33.14
2023-07-08T08:40:22.027Z,33.34
2023-07-08T08:42:59.569Z,33.46
2023-07-08T08:45:33.216Z,33.42
2023-07-08T08:48:06.401Z,33.71
2023-07-08T08:50:44.562Z,34.07
2023-07-08T08:53:18.503Z,34.03
2023-07-08T08:55:52.699Z,34.19
2023-07-08T08:58:36.265Z,34.48
2023-07-08T09:01:11.854Z,34.80
2023-07-08T09:03:50.279Z,34.86
2023-07-08T09:06:24.262Z,34.75
2023-07-08T09:08:57.020Z,35.00
2023-07-08T09:11:39.893Z,34.97
2023-07-08T09:14:17.423Z,35.11
2023-07-08T09:16:57.930Z,35.07
2023-07-08T09:19:33.457Z,35.62
2023-07-08T09:22:12.297Z,35.88
2023-07-08T09:24:46.379Z,35.66
2023-07-08T09:27:14.360Z,35.41
2023-07-08T09:29:42.282Z,36.02
2023-07-08T09:32:18.454Z,36.23
2023-07-08T09:34:51.150Z,36.47
2023-07-08T09:37:29.573Z,36.68
2023-07-08T09:40:01.517Z,37.13
2023-07-08T09:42:34.058Z,37.27
2023-07-08T09:45:12.724Z,36.79
2023-07-08T09:47:41.798Z,37.05
2023-07-08T09:50:22.110Z,37.08
2023-07-08T09:52:52.679Z,37.32
2023-07-08T09:55:22.263Z,37.61
2023-07-08T09:57:54.802Z,37.63
2023-07-08T10:00:35.040Z,38.13
2023-07-08T10:03:14.082Z,38.14
2023-07-08T10:05:44.850Z,37.44
2023-07-08T10:08:17.345Z,37.38
2023-07-08T10:10:59.837Z,37.53
2023-07-08T10:13:39.102Z,36.88
2023-07-08T10:16:16.067Z,37.08
2023-07-08T10:18:44.365Z,37.26
2023-07-08T10:21:27.127Z,37.51
2023-07-08T10:24:07.059Z,37.37
2023-07-08T10:26:39.239Z,37.67
2023-07-08T10:29:26.295Z,37.72
2023-07-08T10:32:12.033Z,37.87
2023-07-08T10:34:50.744Z,37.94
2023-07-08T10:37:32.325Z,37.53
2023-07-08T10:40:20.487Z,37.60
2023-07-08T10:43:11.411Z,37.56
2023-07-08T10:45:50.811Z,37.70
2023-07-08T10:48:45.620Z,37.89
2023-07-08T10:51:33.124Z,38.08
2023-07-08T10:54:28.763Z,38.27
2023-07-08T10:57:13.273Z,37.74
2023-07-08T11:00:01.042Z,38.02
2023-07-08T11:03:17.057Z,37.93
2023-07-08T11:05:51.617Z,38.24
2023-07-08T11:08:29.358Z,38.64
2023-07-08T11:13:46.156Z,38.48
2023-07-08T11:16:25.885Z,38.92
2023-07-08T11:19:03.653Z,38.76
2023-07-08T11:21:38.739Z,38.77
2023-07-08T11:24:22.455Z,39.67
2023-07-08T11:26:58.590Z,40.05
2023-07-08T11:29:38.386Z,39.77
2023-07-08T11:32:15.464Z,39.47
2023-07-08T11:34:47.746Z,39.99
2023-07-08T11:37:19.944Z,39.95
2023-07-08T11:39:54.880Z,40.09
2023-07-08T11:42:36.176Z,40.89
2023-07-08T11:45:24.967Z,40.81
2023-07-08T11:48:04.144Z,41.24
2023-07-08T11:50:38.475Z,40.06
2023-07-08T11:53:10.261Z,39.89
2023-07-08T11:55:44.160Z,40.05
2023-07-08T11:58:23.511Z,41.05
2023-07-08T12:01:04.445Z,41.78
2023-07-08T12:03:39.471Z,41.67
2023-07-08T12:06:44.927Z,42.09
2023-07-08T12:09:26.690Z,42.57
2023-07-08T12:12:01.386Z,43.34
2023-07-08T12:14:32.571Z,43.74
2023-07-08T12:17:00.634Z,43.30
2023-07-08T12:19:35.781Z,43.72
2023-07-08T12:22:06.532Z,43.47
2023-07-08T12:24:35.053Z,43.32
2023-07-08T12:27:04.018Z,42.34
2023-07-08T12:29:33.053Z,41.88
2023-07-08T12:32:01.230Z,42.12
2023-07-08T12:34:30.761Z,42.12
2023-07-08T12:36:58.917Z,41.97
2023-07-08T12:39:26.766Z,42.59
2023-07-08T12:41:57.839Z,42.11
2023-07-08T12:44:27.764Z,41.09
2023-07-08T12:46:56.903Z,41.17
2023-07-08T12:49:28.453Z,41.93
2023-07-08T12:51:57.965Z,42.19
2023-07-08T12:54:28.842Z,42.17
2023-07-08T12:56:57.183Z,41.68
2023-07-08T12:59:26.045Z,41.15
2023-07-08T13:01:54.577Z,40.86
2023-07-08T13:04:23.792Z,41.63
2023-07-08T13:06:52.219Z,40.67
2023-07-08T13:09:38.725Z,40.37
2023-07-08T13:12:17.796Z,41.15
2023-07-08T13:14:47.108Z,40.81
2023-07-08T13:17:16.560Z,40.72
2023-07-08T13:19:45.789Z,40.89
2023-07-08T13:22:19.186Z,41.66
2023-07-08T13:24:49.714Z,42.31
2023-07-08T13:27:25.099Z,42.67
2023-07-08T13:29:53.508Z,42.49
2023-07-08T13:32:21.472Z,41.77
2023-07-08T13:34:51.992Z,41.05
2023-07-08T13:37:24.013Z,40.75
2023-07-08T13:39:55.615Z,40.52
2023-07-08T13:42:23.702Z,40.16
2023-07-08T13:44:51.752Z,40.73
2023-07-08T13:47:28.702Z,41.03
2023-07-08T13:50:06.209Z,41.17
2023-07-08T13:52:34.350Z,41.55
2023-07-08T13:55:20.072Z,41.72
2023-07-08T13:58:00.527Z,41.38
2023-07-08T14:00:32.054Z,41.26
2023-07-08T14:03:00.582Z,41.33
2023-07-08T14:05:28.639Z,41.14
2023-07-08T14:07:56.484Z,41.00
2023-07-08T14:10:25.703Z,40.92
2023-07-08T14:12:53.626Z,41.78
2023-07-08T14:15:21.480Z,42.07
2023-07-08T14:17:50.442Z,42.45
2023-07-08T14:20:19.338Z,42.63
2023-07-08T14:22:47.365Z,43.09
2023-07-08T14:25:16.792Z,43.76
2023-07-08T14:27:46.092Z,43.72
2023-07-08T14:30:14.503Z,43.46
2023-07-08T14:32:42.854Z,43.06
2023-07-08T14:35:18.432Z,42.91
2023-07-08T14:37:46.495Z,43.16
2023-07-08T14:40:27.508Z,42.79
2023-07-08T14:43:02.916Z,42.18
2023-07-08T14:45:43.229Z,41.16
2023-07-08T14:48:12.343Z,41.06
2023-07-08T14:50:41.207Z,40.63
2023-07-08T14:53:09.876Z,40.35
2023-07-08T14:55:38.353Z,40.02
2023-07-08T14:58:07.951Z,39.86
2023-07-08T15:00:36.152Z,39.42
2023-07-08T15:03:06.102Z,39.64
2023-07-08T15:05:33.949Z,40.01
2023-07-08T15:08:01.847Z,39.89
2023-07-08T15:10:31.357Z,40.49
2023-07-08T15:13:01.118Z,41.04
2023-07-08T15:15:33.335Z,41.13
2023-07-08T15:18:03.522Z,40.16
2023-07-08T15:20:33.981Z,39.67
2023-07-08T15:23:02.070Z,39.81
2023-07-08T15:25:30.164Z,39.98
2023-07-08T15:27:58.665Z,40.05
2023-07-08T15:30:30.584Z,39.85
2023-07-08T15:32:59.459Z,40.50
2023-07-08T15:35:31.542Z,40.27
2023-07-08T15:38:00.435Z,39.72
2023-07-08T15:40:32.715Z,39.48
2023-07-08T15:43:03.807Z,39.66
2023-07-08T15:45:36.480Z,40.33
2023-07-08T15:48:04.833Z,40.44
2023-07-08T15:50:32.928Z,39.68
2023-07-08T15:53:00.862Z,39.44
2023-07-08T15:55:34.775Z,39.48
2023-07-08T15:58:08.105Z,39.51
2023-07-08T16:00:41.102Z,39.45
2023-07-08T16:03:19.475Z,39.27
2023-07-08T16:05:47.492Z,39.27
2023-07-08T16:08:15.318Z,39.04
2023-07-08T16:10:46.999Z,38.85
2023-07-08T16:13:24.540Z,38.76
2023-07-08T16:15:55.011Z,38.57
2023-07-08T16:18:23.535Z,38.58
2023-07-08T16:20:51.691Z,38.32
2023-07-08T16:23:19.712Z,38.26
2023-07-08T16:25:51.587Z,38.14
2023-07-08T16:28:29.465Z,37.84
2023-07-08T16:30:59.013Z,37.73
2023-07-08T16:33:27.339Z,37.87
2023-07-08T16:35:55.167Z,37.65
2023-07-08T16:38:22.965Z,37.63
2023-07-08T16:40:51.881Z,37.55
2023-07-08T16:43:27.054Z,37.34
2023-07-08T16:45:55.052Z,37.24
2023-07-08T16:48:24.486Z,37.41
2023-07-08T16:50:53.067Z,37.45
2023-07-08T16:53:20.933Z,37.35
2023-07-08T16:55:49.731Z,37.05
2023-07-08T16:58:17.902Z,36.72
2023-07-08T17:00:47.524Z,36.88
2023-07-08T17:03:18.984Z,36.87
2023-07-08T17:05:48.800Z,36.59
2023-07-08T17:08:17.369Z,36.67
2023-07-08T17:10:45.572Z,36.53
2023-07-08T17:13:13.487Z,36.75
2023-07-08T17:15:41.958Z,36.96
2023-07-08T17:18:21.422Z,36.82
2023-07-08T17:20:55.370Z,36.91
2023-07-08T17:23:23.851Z,36.94
2023-07-08T17:25:51.658Z,36.66
2023-07-08T17:28:19.849Z,36.55
2023-07-08T17:30:51.346Z,36.16
2023-07-08T17:33:24.011Z,35.94
2023-07-08T17:35:54.998Z,35.67
2023-07-08T17:38:46.515Z,35.34
2023-07-08T17:41:18.766Z,35.16
2023-07-08T17:43:47.857Z,34.95
2023-07-08T17:46:20.588Z,34.74
2023-07-08T17:48:49.336Z,34.54
2023-07-08T17:51:22.384Z,34.51
2023-07-08T17:53:53.177Z,34.27
2023-07-08T17:56:32.369Z,34.17
2023-07-08T17:59:01.983Z,34.00
2023-07-08T18:01:30.674Z,34.06
2023-07-08T18:03:58.672Z,34.05
2023-07-08T18:06:28.021Z,34.05
2023-07-08T18:08:55.916Z,34.07
2023-07-08T18:11:28.112Z,34.10
2023-07-08T18:13:57.815Z,34.13
2023-07-08T18:16:28.164Z,34.10
2023-07-08T18:18:56.081Z,34.27
2023-07-08T18:21:27.615Z,34.11
2023-07-08T18:23:56.593Z,34.08
2023-07-08T18:26:28.339Z,34.14
2023-07-08T18:28:56.293Z,34.00
2023-07-08T18:31:31.869Z,33.76
2023-07-08T18:34:02.463Z,33.55
2023-07-08T18:36:32.980Z,33.39
2023-07-08T18:39:01.483Z,33.35
2023-07-08T18:41:40.733Z,33.26
2023-07-08T18:44:19.449Z,32.98
2023-07-08T18:46:47.402Z,32.76
2023-07-08T18:49:15.288Z,32.60
2023-07-08T18:51:45.240Z,32.66
2023-07-08T18:54:16.621Z,32.57
2023-07-08T18:56:45.143Z,32.49
2023-07-08T18:59:13.220Z,32.25
2023-07-08T19:01:44.992Z,32.13
2023-07-08T19:04:19.038Z,31.98
2023-07-08T19:06:48.812Z,31.85
2023-07-08T19:09:16.677Z,31.76
2023-07-08T19:11:47.291Z,31.78
2023-07-08T19:14:18.396Z,31.72
2023-07-08T19:16:46.655Z,31.64
2023-07-08T19:19:15.035Z,31.56
2023-07-08T19:21:43.274Z,31.57
2023-07-08T19:24:24.206Z,31.54
2023-07-08T19:27:00.464Z,31.31
2023-07-08T19:29:28.229Z,31.24
2023-07-08T19:31:56.194Z,31.11
2023-07-08T19:34:24.226Z,30.95
2023-07-08T19:36:52.188Z,30.86
2023-07-08T19:39:21.380Z,30.67
2023-07-08T19:41:49.350Z,30.62
2023-07-08T19:44:26.104Z,30.49
2023-07-08T19:46:55.161Z,30.41
2023-07-08T19:49:23.173Z,30.36
2023-07-08T19:51:51.090Z,30.40
2023-07-08T19:54:18.902Z,30.41
2023-07-08T19:56:48.191Z,30.43
2023-07-08T19:59:16.192Z,30.42
2023-07-08T20:01:44.428Z,30.31
2023-07-08T20:04:17.001Z,30.26
2023-07-08T20:06:46.186Z,30.12
2023-07-08T20:09:16.218Z,29.99
2023-07-08T20:11:44.878Z,29.82
2023-07-08T20:14:14.282Z,29.75
2023-07-08T20:16:43.948Z,29.74
2023-07-08T20:19:20.820Z,29.61
2023-07-08T20:21:48.610Z,29.48
2023-07-08T20:24:16.468Z,29.44
2023-07-08T20:26:46.734Z,29.33
2023-07-08T20:29:17.924Z,29.23
2023-07-08T20:31:46.230Z,29.14
2023-07-08T20:34:18.353Z,29.07
2023-07-08T20:36:46.919Z,28.92
2023-07-08T20:39:20.011Z,28.99
2023-07-08T20:41:48.000Z,28.89
2023-07-08T20:44:17.145Z,28.96
2023-07-08T20:46:50.665Z,28.88
2023-07-08T20:49:19.784Z,28.82
2023-07-08T20:51:47.710Z,28.78
2023-07-08T20:54:15.775Z,28.72
2023-07-08T20:56:43.707Z,28.68
2023-07-08T20:59:19.021Z,28.59
2023-07-08T21:01:47.567Z,28.53
2023-07-08T21:04:15.351Z,28.45
2023-07-08T21:06:43.405Z,28.37
2023-07-08T21:09:14.669Z,28.31
2023-07-08T21:11:42.568Z,28.30
2023-07-08T21:14:10.638Z,28.32
2023-07-08T21:16:40.267Z,28.17
2023-07-08T21:19:10.424Z,28.18
2023-07-08T21:21:38.316Z,28.07
2023-07-08T21:24:13.825Z,28.01
2023-07-08T21:26:44.643Z,27.89
2023-07-08T21:29:13.243Z,27.90
2023-07-08T21:31:42.519Z,27.90
2023-07-08T21:34:10.599Z,27.84
2023-07-08T21:36:42.985Z,27.80
2023-07-08T21:39:23.432Z,27.83
2023-07-08T21:41:51.381Z,27.82
2023-07-08T21:44:19.273Z,27.77
2023-07-08T21:46:48.873Z,27.71
2023-07-08T21:49:17.768Z,27.70
2023-07-08T21:51:47.030Z,27.67
2023-07-08T21:54:16.025Z,27.68
2023-07-08T21:56:44.079Z,27.67
2023-07-08T21:59:18.336Z,27.60
2023-07-08T22:01:48.157Z,27.56
2023-07-08T22:04:16.444Z,27.50
2023-07-08T22:06:44.565Z,27.39
2023-07-08T22:09:12.729Z,27.31
2023-07-08T22:11:40.872Z,27.30
2023-07-08T22:14:12.285Z,27.21
2023-07-08T22:16:40.389Z,27.21
2023-07-08T22:19:09.586Z,27.10
2023-07-08T22:21:40.268Z,27.17
2023-07-08T22:24:10.626Z,27.08
2023-07-08T22:26:42.301Z,27.12
2023-07-08T22:29:10.557Z,27.06
2023-07-08T22:31:41.210Z,27.01
2023-07-08T22:34:15.188Z,26.97
2023-07-08T22:36:43.123Z,26.96
2023-07-08T22:39:12.377Z,26.95
2023-07-08T22:41:44.781Z,26.86
2023-07-08T22:44:15.139Z,26.88
2023-07-08T22:46:43.295Z,26.84
2023-07-08T22:49:15.684Z,26.73
2023-07-08T22:51:48.181Z,26.61
2023-07-08T22:54:19.222Z,26.61
2023-07-08T22:56:47.141Z,26.61
2023-07-08T22:59:14.928Z,26.60
2023-07-08T23:01:43.026Z,26.43
2023-07-08T23:04:12.294Z,26.47
2023-07-08T23:06:44.169Z,26.38
2023-07-08T23:09:15.064Z,26.35
2023-07-08T23:11:44.163Z,26.29
2023-07-08T23:14:12.685Z,26.21
2023-07-08T23:16:40.952Z,26.18
2023-07-08T23:19:12.867Z,26.18
2023-07-08T23:21:42.126Z,26.20
2023-07-08T23:24:10.313Z,26.21
2023-07-08T23:26:41.571Z,26.21
2023-07-08T23:32:06.006Z,26.12
2023-07-08T23:34:35.999Z,26.06
2023-07-08T23:37:05.183Z,25.94
2023-07-08T23:39:33.118Z,25.81
2023-07-08T23:42:01.069Z,25.68
2023-07-08T23:44:29.535Z,25.66
2023-07-08T23:47:01.103Z,25.69
2023-07-08T23:49:34.335Z,25.68
2023-07-08T23:52:04.747Z,25.51
2023-07-08T23:54:35.879Z,25.52
2023-07-08T23:57:07.402Z,25.56
2023-07-08T23:59:48.468Z,25.47
